sensor_id;sensor_type;location;lat;lon;timestamp;P1;durP1;ratioP1;P2;durP2;ratioP2
19032;SDS011;9649;51.042;13.804;2023-04-23T00:05:01;6.20;;;4.10;;
19032;SDS011;9649;51.042;13.804;2023-04-23T00:10:06;7.88;;;4.07;;
19032;SDS011;9649;51.042;13.804;2023-04-23T00:15:11;12.20;;;4.07;;
19032;SDS011;9649;51.042;13.804;2023-04-23T00:20:16;9.50;;;4.20;;
19032;SDS011;9649;51.042;13.804;2023-04-23T00:25:19;8.15;;;4.30;;
19032;SDS011;9649;51.042;13.804;2023-04-23T00:30:22;10.80;;;5.78;;
19032;SDS011;9649;51.042;13.804;2023-04-23T00:35:26;9.60;;;5.00;;
19032;SDS011;9649;51.042;13.804;2023-04-23T00:40:28;8.20;;;4.63;;
19032;SDS011;9649;51.042;13.804;2023-04-23T00:45:31;10.45;;;4.47;;
19032;SDS011;9649;51.042;13.804;2023-04-23T00:50:35;8.20;;;4.40;;
19032;SDS011;9649;51.042;13.804;2023-04-23T00:55:38;8.80;;;4.57;;
19032;SDS011;9649;51.042;13.804;2023-04-23T01:00:43;8.43;;;4.60;;
19032;SDS011;9649;51.042;13.804;2023-04-23T01:05:50;9.82;;;4.47;;
19032;SDS011;9649;51.042;13.804;2023-04-23T01:10:53;6.00;;;3.97;;
19032;SDS011;9649;51.042;13.804;2023-04-23T01:15:56;6.50;;;4.07;;
19032;SDS011;9649;51.042;13.804;2023-04-23T01:21:00;7.43;;;4.60;;
19032;SDS011;9649;51.042;13.804;2023-04-23T01:26:05;7.18;;;4.60;;
19032;SDS011;9649;51.042;13.804;2023-04-23T01:31:08;11.05;;;5.75;;
19032;SDS011;9649;51.042;13.804;2023-04-23T01:36:11;12.35;;;5.50;;
19032;SDS011;9649;51.042;13.804;2023-04-23T01:41:16;9.85;;;6.13;;
19032;SDS011;9649;51.042;13.804;2023-04-23T01:46:20;7.40;;;5.32;;
19032;SDS011;9649;51.042;13.804;2023-04-23T01:51:23;14.38;;;5.20;;
19032;SDS011;9649;51.042;13.804;2023-04-23T01:56:28;11.75;;;6.03;;
19032;SDS011;9649;51.042;13.804;2023-04-23T02:01:40;9.48;;;5.82;;
19032;SDS011;9649;51.042;13.804;2023-04-23T02:06:45;10.73;;;5.88;;
19032;SDS011;9649;51.042;13.804;2023-04-23T02:11:51;9.35;;;5.97;;
19032;SDS011;9649;51.042;13.804;2023-04-23T02:16:54;10.98;;;6.10;;
19032;SDS011;9649;51.042;13.804;2023-04-23T02:21:57;11.05;;;5.55;;
19032;SDS011;9649;51.042;13.804;2023-04-23T02:27:01;10.25;;;5.40;;
19032;SDS011;9649;51.042;13.804;2023-04-23T02:32:04;7.20;;;5.35;;
19032;SDS011;9649;51.042;13.804;2023-04-23T02:37:07;8.90;;;5.70;;
19032;SDS011;9649;51.042;13.804;2023-04-23T02:42:11;9.52;;;5.60;;
19032;SDS011;9649;51.042;13.804;2023-04-23T02:47:14;9.63;;;5.25;;
19032;SDS011;9649;51.042;13.804;2023-04-23T02:52:17;13.55;;;6.50;;
19032;SDS011;9649;51.042;13.804;2023-04-23T02:57:21;11.30;;;6.07;;
19032;SDS011;9649;51.042;13.804;2023-04-23T03:02:24;11.40;;;7.03;;
19032;SDS011;9649;51.042;13.804;2023-04-23T03:07:27;10.85;;;5.65;;
19032;SDS011;9649;51.042;13.804;2023-04-23T03:12:31;12.43;;;5.90;;
19032;SDS011;9649;51.042;13.804;2023-04-23T03:17:34;9.70;;;5.18;;
19032;SDS011;9649;51.042;13.804;2023-04-23T03:22:36;14.38;;;5.07;;
19032;SDS011;9649;51.042;13.804;2023-04-23T03:27:40;8.30;;;4.82;;
19032;SDS011;9649;51.042;13.804;2023-04-23T03:32:44;10.73;;;4.85;;
19032;SDS011;9649;51.042;13.804;2023-04-23T03:37:47;9.25;;;4.85;;
19032;SDS011;9649;51.042;13.804;2023-04-23T03:42:51;10.23;;;4.40;;
19032;SDS011;9649;51.042;13.804;2023-04-23T03:47:54;9.25;;;4.88;;
19032;SDS011;9649;51.042;13.804;2023-04-23T03:52:56;7.93;;;4.90;;
19032;SDS011;9649;51.042;13.804;2023-04-23T03:58:01;7.35;;;4.90;;
19032;SDS011;9649;51.042;13.804;2023-04-23T04:03:04;9.50;;;4.20;;
19032;SDS011;9649;51.042;13.804;2023-04-23T04:08:08;8.20;;;4.43;;
19032;SDS011;9649;51.042;13.804;2023-04-23T04:13:12;8.15;;;4.40;;
19032;SDS011;9649;51.042;13.804;2023-04-23T04:18:16;9.48;;;4.45;;
19032;SDS011;9649;51.042;13.804;2023-04-23T04:23:18;10.90;;;5.15;;
19032;SDS011;9649;51.042;13.804;2023-04-23T04:28:23;7.40;;;4.90;;
19032;SDS011;9649;51.042;13.804;2023-04-23T04:33:26;8.73;;;4.35;;
19032;SDS011;9649;51.042;13.804;2023-04-23T04:38:29;6.72;;;4.53;;
19032;SDS011;9649;51.042;13.804;2023-04-23T04:43:33;8.70;;;4.45;;
19032;SDS011;9649;51.042;13.804;2023-04-23T04:48:36;10.15;;;4.65;;
19032;SDS011;9649;51.042;13.804;2023-04-23T04:53:39;10.60;;;4.50;;
19032;SDS011;9649;51.042;13.804;2023-04-23T04:58:43;9.20;;;4.68;;
19032;SDS011;9649;51.042;13.804;2023-04-23T05:03:45;11.05;;;4.60;;
19032;SDS011;9649;51.042;13.804;2023-04-23T05:08:48;7.95;;;4.63;;
19032;SDS011;9649;51.042;13.804;2023-04-23T05:13:53;7.15;;;4.32;;
19032;SDS011;9649;51.042;13.804;2023-04-23T05:18:55;8.52;;;4.25;;
19032;SDS011;9649;51.042;13.804;2023-04-23T05:23:58;11.18;;;4.60;;
19032;SDS011;9649;51.042;13.804;2023-04-23T05:29:02;7.22;;;4.35;;
19032;SDS011;9649;51.042;13.804;2023-04-23T05:34:05;8.02;;;4.32;;
19032;SDS011;9649;51.042;13.804;2023-04-23T05:39:07;10.95;;;4.50;;
19032;SDS011;9649;51.042;13.804;2023-04-23T05:44:11;6.68;;;4.13;;
19032;SDS011;9649;51.042;13.804;2023-04-23T05:49:14;11.32;;;4.93;;
19032;SDS011;9649;51.042;13.804;2023-04-23T05:54:17;8.95;;;4.95;;
19032;SDS011;9649;51.042;13.804;2023-04-23T05:59:21;6.57;;;4.30;;
19032;SDS011;9649;51.042;13.804;2023-04-23T06:04:24;11.25;;;4.35;;
19032;SDS011;9649;51.042;13.804;2023-04-23T06:09:27;5.90;;;3.80;;
19032;SDS011;9649;51.042;13.804;2023-04-23T06:14:32;9.75;;;4.30;;
19032;SDS011;9649;51.042;13.804;2023-04-23T06:19:34;9.57;;;4.20;;
19032;SDS011;9649;51.042;13.804;2023-04-23T06:24:37;8.68;;;3.78;;
19032;SDS011;9649;51.042;13.804;2023-04-23T06:29:41;6.47;;;3.38;;
19032;SDS011;9649;51.042;13.804;2023-04-23T06:34:44;7.63;;;3.83;;
19032;SDS011;9649;51.042;13.804;2023-04-23T06:40:00;5.72;;;3.40;;
19032;SDS011;9649;51.042;13.804;2023-04-23T06:45:05;5.85;;;3.70;;
19032;SDS011;9649;51.042;13.804;2023-04-23T06:50:08;7.18;;;3.55;;
19032;SDS011;9649;51.042;13.804;2023-04-23T06:55:11;7.18;;;3.35;;
19032;SDS011;9649;51.042;13.804;2023-04-23T07:00:15;8.90;;;3.40;;
19032;SDS011;9649;51.042;13.804;2023-04-23T07:05:18;10.15;;;3.80;;
19032;SDS011;9649;51.042;13.804;2023-04-23T07:10:21;7.10;;;3.72;;
19032;SDS011;9649;51.042;13.804;2023-04-23T07:15:25;4.65;;;2.60;;
19032;SDS011;9649;51.042;13.804;2023-04-23T07:20:28;4.30;;;2.13;;
19032;SDS011;9649;51.042;13.804;2023-04-23T07:25:30;5.22;;;2.35;;
19032;SDS011;9649;51.042;13.804;2023-04-23T07:30:34;2.70;;;1.65;;
19032;SDS011;9649;51.042;13.804;2023-04-23T07:35:37;3.75;;;1.80;;
19032;SDS011;9649;51.042;13.804;2023-04-23T07:40:40;2.72;;;1.50;;
19032;SDS011;9649;51.042;13.804;2023-04-23T07:45:44;2.88;;;1.85;;
19032;SDS011;9649;51.042;13.804;2023-04-23T07:50:47;2.63;;;1.67;;
19032;SDS011;9649;51.042;13.804;2023-04-23T07:55:49;3.67;;;1.73;;
19032;SDS011;9649;51.042;13.804;2023-04-23T08:00:54;6.28;;;1.80;;
19032;SDS011;9649;51.042;13.804;2023-04-23T08:05:56;6.07;;;2.05;;
19032;SDS011;9649;51.042;13.804;2023-04-23T08:10:59;3.97;;;1.50;;
19032;SDS011;9649;51.042;13.804;2023-04-23T08:16:05;2.70;;;1.42;;
19032;SDS011;9649;51.042;13.804;2023-04-23T08:21:10;2.88;;;1.20;;
19032;SDS011;9649;51.042;13.804;2023-04-23T08:26:14;3.13;;;1.00;;
19032;SDS011;9649;51.042;13.804;2023-04-23T08:31:18;2.30;;;1.02;;
19032;SDS011;9649;51.042;13.804;2023-04-23T08:36:27;3.05;;;1.35;;
19032;SDS011;9649;51.042;13.804;2023-04-23T08:41:32;3.45;;;0.90;;
19032;SDS011;9649;51.042;13.804;2023-04-23T08:46:40;1.70;;;1.20;;
19032;SDS011;9649;51.042;13.804;2023-04-23T08:51:46;3.15;;;1.25;;
19032;SDS011;9649;51.042;13.804;2023-04-23T08:56:50;2.13;;;1.40;;
19032;SDS011;9649;51.042;13.804;2023-04-23T09:01:58;2.22;;;1.10;;
19032;SDS011;9649;51.042;13.804;2023-04-23T09:07:08;1.30;;;1.02;;
19032;SDS011;9649;51.042;13.804;2023-04-23T09:12:11;2.15;;;1.23;;
19032;SDS011;9649;51.042;13.804;2023-04-23T09:17:15;1.65;;;1.13;;
19032;SDS011;9649;51.042;13.804;2023-04-23T09:27:40;2.15;;;0.85;;
19032;SDS011;9649;51.042;13.804;2023-04-23T09:32:45;1.48;;;0.85;;
19032;SDS011;9649;51.042;13.804;2023-04-23T09:37:49;1.00;;;0.75;;
19032;SDS011;9649;51.042;13.804;2023-04-23T09:42:53;1.15;;;0.90;;
19032;SDS011;9649;51.042;13.804;2023-04-23T09:47:57;1.52;;;0.70;;
19032;SDS011;9649;51.042;13.804;2023-04-23T09:53:00;1.90;;;0.60;;
19032;SDS011;9649;51.042;13.804;2023-04-23T09:58:04;2.65;;;0.80;;
19032;SDS011;9649;51.042;13.804;2023-04-23T10:03:09;1.42;;;0.70;;
19032;SDS011;9649;51.042;13.804;2023-04-23T10:08:12;0.60;;;0.60;;
19032;SDS011;9649;51.042;13.804;2023-04-23T10:13:17;1.75;;;0.82;;
19032;SDS011;9649;51.042;13.804;2023-04-23T10:18:22;0.70;;;0.60;;
19032;SDS011;9649;51.042;13.804;2023-04-23T10:23:26;0.55;;;0.55;;
19032;SDS011;9649;51.042;13.804;2023-04-23T10:28:29;1.02;;;0.60;;
19032;SDS011;9649;51.042;13.804;2023-04-23T10:33:36;0.60;;;0.60;;
19032;SDS011;9649;51.042;13.804;2023-04-23T10:38:55;0.43;;;0.43;;
19032;SDS011;9649;51.042;13.804;2023-04-23T10:44:02;1.30;;;0.63;;
19032;SDS011;9649;51.042;13.804;2023-04-23T10:49:09;0.68;;;0.50;;
19032;SDS011;9649;51.042;13.804;2023-04-23T10:54:15;0.55;;;0.55;;
19032;SDS011;9649;51.042;13.804;2023-04-23T10:59:20;0.80;;;0.80;;
19032;SDS011;9649;51.042;13.804;2023-04-23T11:04:25;0.50;;;0.50;;
19032;SDS011;9649;51.042;13.804;2023-04-23T11:09:31;1.27;;;0.50;;
19032;SDS011;9649;51.042;13.804;2023-04-23T11:14:46;2.10;;;1.00;;
19032;SDS011;9649;51.042;13.804;2023-04-23T11:20:07;1.65;;;0.60;;
19032;SDS011;9649;51.042;13.804;2023-04-23T11:25:14;0.80;;;0.65;;
19032;SDS011;9649;51.042;13.804;2023-04-23T11:30:21;1.48;;;0.80;;
19032;SDS011;9649;51.042;13.804;2023-04-23T11:35:26;1.08;;;1.00;;
19032;SDS011;9649;51.042;13.804;2023-04-23T11:40:30;1.15;;;0.70;;
19032;SDS011;9649;51.042;13.804;2023-04-23T11:45:34;0.55;;;0.55;;
19032;SDS011;9649;51.042;13.804;2023-04-23T11:50:39;0.55;;;0.52;;
19032;SDS011;9649;51.042;13.804;2023-04-23T11:55:43;0.80;;;0.80;;
19032;SDS011;9649;51.042;13.804;2023-04-23T12:00:55;2.20;;;0.73;;
19032;SDS011;9649;51.042;13.804;2023-04-23T12:06:00;0.50;;;0.50;;
19032;SDS011;9649;51.042;13.804;2023-04-23T12:11:03;1.15;;;0.65;;
19032;SDS011;9649;51.042;13.804;2023-04-23T12:16:07;0.60;;;0.60;;
19032;SDS011;9649;51.042;13.804;2023-04-23T12:21:13;0.77;;;0.70;;
19032;SDS011;9649;51.042;13.804;2023-04-23T12:26:17;0.82;;;0.68;;
19032;SDS011;9649;51.042;13.804;2023-04-23T12:31:22;0.77;;;0.65;;
19032;SDS011;9649;51.042;13.804;2023-04-23T12:36:27;0.90;;;0.70;;
19032;SDS011;9649;51.042;13.804;2023-04-23T12:41:32;0.73;;;0.70;;
19032;SDS011;9649;51.042;13.804;2023-04-23T12:46:34;1.13;;;0.77;;
19032;SDS011;9649;51.042;13.804;2023-04-23T12:51:38;1.40;;;0.82;;
19032;SDS011;9649;51.042;13.804;2023-04-23T12:56:41;1.85;;;0.60;;
19032;SDS011;9649;51.042;13.804;2023-04-23T13:01:44;1.73;;;0.60;;
19032;SDS011;9649;51.042;13.804;2023-04-23T13:06:48;3.58;;;0.70;;
19032;SDS011;9649;51.042;13.804;2023-04-23T13:11:52;0.65;;;0.65;;
19032;SDS011;9649;51.042;13.804;2023-04-23T13:16:55;0.70;;;0.70;;
19032;SDS011;9649;51.042;13.804;2023-04-23T13:22:01;0.70;;;0.70;;
19032;SDS011;9649;51.042;13.804;2023-04-23T13:27:04;2.25;;;0.60;;
19032;SDS011;9649;51.042;13.804;2023-04-23T13:32:07;0.80;;;0.60;;
19032;SDS011;9649;51.042;13.804;2023-04-23T13:37:11;0.75;;;0.70;;
19032;SDS011;9649;51.042;13.804;2023-04-23T13:42:14;0.60;;;0.60;;
19032;SDS011;9649;51.042;13.804;2023-04-23T13:47:16;0.63;;;0.63;;
19032;SDS011;9649;51.042;13.804;2023-04-23T13:52:20;1.08;;;0.90;;
19032;SDS011;9649;51.042;13.804;2023-04-23T13:57:23;0.70;;;0.70;;
19032;SDS011;9649;51.042;13.804;2023-04-23T14:02:26;1.30;;;0.88;;
19032;SDS011;9649;51.042;13.804;2023-04-23T14:07:30;0.60;;;0.60;;
19032;SDS011;9649;51.042;13.804;2023-04-23T14:12:33;1.48;;;0.90;;
19032;SDS011;9649;51.042;13.804;2023-04-23T14:17:36;0.73;;;0.70;;
19032;SDS011;9649;51.042;13.804;2023-04-23T14:22:42;1.58;;;0.90;;
19032;SDS011;9649;51.042;13.804;2023-04-23T14:27:49;1.40;;;1.02;;
19032;SDS011;9649;51.042;13.804;2023-04-23T14:32:53;1.30;;;1.17;;
19032;SDS011;9649;51.042;13.804;2023-04-23T14:37:58;4.70;;;1.30;;
19032;SDS011;9649;51.042;13.804;2023-04-23T14:43:01;3.47;;;1.50;;
19032;SDS011;9649;51.042;13.804;2023-04-23T14:48:15;2.00;;;1.80;;
19032;SDS011;9649;51.042;13.804;2023-04-23T14:53:19;2.15;;;1.55;;
19032;SDS011;9649;51.042;13.804;2023-04-23T14:58:22;1.88;;;1.65;;
19032;SDS011;9649;51.042;13.804;2023-04-23T15:03:25;2.75;;;1.52;;
19032;SDS011;9649;51.042;13.804;2023-04-23T15:08:29;5.88;;;2.88;;
19032;SDS011;9649;51.042;13.804;2023-04-23T15:13:35;3.42;;;1.60;;
19032;SDS011;9649;51.042;13.804;2023-04-23T15:18:41;2.33;;;1.80;;
19032;SDS011;9649;51.042;13.804;2023-04-23T15:23:45;2.38;;;1.90;;
19032;SDS011;9649;51.042;13.804;2023-04-23T15:28:49;4.95;;;1.90;;
19032;SDS011;9649;51.042;13.804;2023-04-23T15:33:51;1.98;;;1.73;;
19032;SDS011;9649;51.042;13.804;2023-04-23T15:38:55;2.22;;;1.70;;
19032;SDS011;9649;51.042;13.804;2023-04-23T15:43:58;2.58;;;2.03;;
19032;SDS011;9649;51.042;13.804;2023-04-23T15:49:02;2.33;;;1.70;;
19032;SDS011;9649;51.042;13.804;2023-04-23T15:54:07;2.22;;;2.00;;
19032;SDS011;9649;51.042;13.804;2023-04-23T15:59:10;2.65;;;1.70;;
19032;SDS011;9649;51.042;13.804;2023-04-23T16:04:12;2.38;;;1.90;;
19032;SDS011;9649;51.042;13.804;2023-04-23T16:09:17;3.70;;;2.00;;
19032;SDS011;9649;51.042;13.804;2023-04-23T16:14:19;3.20;;;1.85;;
19032;SDS011;9649;51.042;13.804;2023-04-23T16:19:22;3.95;;;2.25;;
19032;SDS011;9649;51.042;13.804;2023-04-23T16:24:26;2.75;;;1.98;;
19032;SDS011;9649;51.042;13.804;2023-04-23T16:29:29;2.78;;;2.05;;
19032;SDS011;9649;51.042;13.804;2023-04-23T16:34:32;3.38;;;1.80;;
19032;SDS011;9649;51.042;13.804;2023-04-23T16:39:36;2.13;;;1.20;;
19032;SDS011;9649;51.042;13.804;2023-04-23T16:44:39;1.80;;;1.48;;
19032;SDS011;9649;51.042;13.804;2023-04-23T16:49:42;1.60;;;1.50;;
19032;SDS011;9649;51.042;13.804;2023-04-23T16:54:47;6.38;;;2.42;;
19032;SDS011;9649;51.042;13.804;2023-04-23T16:59:50;6.38;;;4.60;;
19032;SDS011;9649;51.042;13.804;2023-04-23T17:04:54;4.25;;;3.85;;
19032;SDS011;9649;51.042;13.804;2023-04-23T17:09:58;4.13;;;3.40;;
19032;SDS011;9649;51.042;13.804;2023-04-23T17:15:01;5.43;;;3.55;;
19032;SDS011;9649;51.042;13.804;2023-04-23T17:20:05;3.08;;;2.55;;
19032;SDS011;9649;51.042;13.804;2023-04-23T17:25:10;6.07;;;2.80;;
19032;SDS011;9649;51.042;13.804;2023-04-23T17:30:13;6.13;;;2.15;;
19032;SDS011;9649;51.042;13.804;2023-04-23T17:35:16;6.68;;;2.38;;
19032;SDS011;9649;51.042;13.804;2023-04-23T17:40:20;3.72;;;1.85;;
19032;SDS011;9649;51.042;13.804;2023-04-23T17:45:23;3.85;;;1.63;;
19032;SDS011;9649;51.042;13.804;2023-04-23T17:50:26;3.60;;;1.50;;
19032;SDS011;9649;51.042;13.804;2023-04-23T17:55:31;4.70;;;1.65;;
19032;SDS011;9649;51.042;13.804;2023-04-23T18:00:34;3.63;;;1.60;;
19032;SDS011;9649;51.042;13.804;2023-04-23T18:05:37;2.67;;;1.85;;
19032;SDS011;9649;51.042;13.804;2023-04-23T18:10:41;6.32;;;2.53;;
19032;SDS011;9649;51.042;13.804;2023-04-23T18:15:45;7.43;;;3.05;;
19032;SDS011;9649;51.042;13.804;2023-04-23T18:20:50;16.67;;;5.43;;
19032;SDS011;9649;51.042;13.804;2023-04-23T18:25:54;4.57;;;2.20;;
19032;SDS011;9649;51.042;13.804;2023-04-23T18:30:57;5.13;;;3.13;;
19032;SDS011;9649;51.042;13.804;2023-04-23T18:36:03;3.33;;;2.30;;
19032;SDS011;9649;51.042;13.804;2023-04-23T18:41:13;4.10;;;2.00;;
19032;SDS011;9649;51.042;13.804;2023-04-23T18:46:15;3.45;;;2.38;;
19032;SDS011;9649;51.042;13.804;2023-04-23T18:51:19;3.17;;;2.20;;
19032;SDS011;9649;51.042;13.804;2023-04-23T18:56:27;3.78;;;2.28;;
19032;SDS011;9649;51.042;13.804;2023-04-23T19:01:30;2.50;;;1.92;;
19032;SDS011;9649;51.042;13.804;2023-04-23T19:06:33;6.35;;;2.10;;
19032;SDS011;9649;51.042;13.804;2023-04-23T19:11:37;2.92;;;1.95;;
19032;SDS011;9649;51.042;13.804;2023-04-23T19:16:40;3.33;;;2.50;;
19032;SDS011;9649;51.042;13.804;2023-04-23T19:21:43;4.68;;;2.28;;
19032;SDS011;9649;51.042;13.804;2023-04-23T19:26:47;2.78;;;1.80;;
19032;SDS011;9649;51.042;13.804;2023-04-23T19:31:49;2.63;;;1.90;;
19032;SDS011;9649;51.042;13.804;2023-04-23T19:36:52;3.65;;;2.70;;
19032;SDS011;9649;51.042;13.804;2023-04-23T19:41:56;3.15;;;2.20;;
19032;SDS011;9649;51.042;13.804;2023-04-23T19:46:59;2.63;;;2.05;;
19032;SDS011;9649;51.042;13.804;2023-04-23T19:52:02;4.95;;;2.53;;
19032;SDS011;9649;51.042;13.804;2023-04-23T19:57:07;3.78;;;2.03;;
19032;SDS011;9649;51.042;13.804;2023-04-23T20:02:09;3.75;;;3.03;;
19032;SDS011;9649;51.042;13.804;2023-04-23T20:07:12;5.60;;;3.03;;
19032;SDS011;9649;51.042;13.804;2023-04-23T20:12:16;6.20;;;3.72;;
19032;SDS011;9649;51.042;13.804;2023-04-23T20:17:20;4.03;;;2.97;;
19032;SDS011;9649;51.042;13.804;2023-04-23T20:22:23;6.30;;;3.42;;
19032;SDS011;9649;51.042;13.804;2023-04-23T20:27:27;3.00;;;2.28;;
19032;SDS011;9649;51.042;13.804;2023-04-23T20:32:31;5.05;;;2.85;;
19032;SDS011;9649;51.042;13.804;2023-04-23T20:37:34;8.75;;;5.13;;
19032;SDS011;9649;51.042;13.804;2023-04-23T20:42:38;9.15;;;5.00;;
19032;SDS011;9649;51.042;13.804;2023-04-23T20:47:42;6.85;;;4.03;;
19032;SDS011;9649;51.042;13.804;2023-04-23T20:52:47;4.20;;;2.80;;
19032;SDS011;9649;51.042;13.804;2023-04-23T20:57:51;3.67;;;2.60;;
19032;SDS011;9649;51.042;13.804;2023-04-23T21:02:53;5.68;;;2.38;;
19032;SDS011;9649;51.042;13.804;2023-04-23T21:07:56;6.10;;;3.35;;
19032;SDS011;9649;51.042;13.804;2023-04-23T21:13:00;4.55;;;2.95;;
19032;SDS011;9649;51.042;13.804;2023-04-23T21:18:03;4.35;;;3.03;;
19032;SDS011;9649;51.042;13.804;2023-04-23T21:23:06;7.00;;;3.38;;
19032;SDS011;9649;51.042;13.804;2023-04-23T21:28:12;3.72;;;2.95;;
19032;SDS011;9649;51.042;13.804;2023-04-23T21:33:16;6.78;;;3.25;;
19032;SDS011;9649;51.042;13.804;2023-04-23T21:38:19;4.00;;;3.20;;
19032;SDS011;9649;51.042;13.804;2023-04-23T21:43:23;5.00;;;2.97;;
19032;SDS011;9649;51.042;13.804;2023-04-23T21:48:26;5.53;;;3.47;;
19032;SDS011;9649;51.042;13.804;2023-04-23T21:53:31;4.00;;;3.40;;
19032;SDS011;9649;51.042;13.804;2023-04-23T21:58:35;4.90;;;3.75;;
19032;SDS011;9649;51.042;13.804;2023-04-23T22:03:38;6.10;;;4.38;;
19032;SDS011;9649;51.042;13.804;2023-04-23T22:08:43;10.77;;;7.40;;
19032;SDS011;9649;51.042;13.804;2023-04-23T22:13:47;5.88;;;4.13;;
19032;SDS011;9649;51.042;13.804;2023-04-23T22:18:50;5.20;;;4.20;;
19032;SDS011;9649;51.042;13.804;2023-04-23T22:23:53;8.98;;;4.50;;
19032;SDS011;9649;51.042;13.804;2023-04-23T22:28:57;7.63;;;5.00;;
19032;SDS011;9649;51.042;13.804;2023-04-23T22:34:00;8.82;;;4.32;;
19032;SDS011;9649;51.042;13.804;2023-04-23T22:39:03;8.18;;;5.53;;
19032;SDS011;9649;51.042;13.804;2023-04-23T22:44:07;6.40;;;3.92;;
19032;SDS011;9649;51.042;13.804;2023-04-23T22:49:10;8.35;;;4.28;;
19032;SDS011;9649;51.042;13.804;2023-04-23T22:54:14;4.72;;;3.97;;
19032;SDS011;9649;51.042;13.804;2023-04-23T22:59:18;6.22;;;3.88;;
19032;SDS011;9649;51.042;13.804;2023-04-23T23:04:21;4.95;;;3.30;;
19032;SDS011;9649;51.042;13.804;2023-04-23T23:09:24;6.05;;;3.65;;
19032;SDS011;9649;51.042;13.804;2023-04-23T23:14:28;4.50;;;3.22;;
19032;SDS011;9649;51.042;13.804;2023-04-23T23:19:31;4.03;;;3.10;;
19032;SDS011;9649;51.042;13.804;2023-04-23T23:24:34;5.28;;;3.38;;
19032;SDS011;9649;51.042;13.804;2023-04-23T23:29:38;5.90;;;3.00;;
19032;SDS011;9649;51.042;13.804;2023-04-23T23:34:41;4.40;;;2.90;;
19032;SDS011;9649;51.042;13.804;2023-04-23T23:39:44;5.07;;;3.05;;
19032;SDS011;9649;51.042;13.804;2023-04-23T23:44:48;4.80;;;3.22;;
19032;SDS011;9649;51.042;13.804;2023-04-23T23:49:50;5.60;;;3.40;;
19032;SDS011;9649;51.042;13.804;2023-04-23T23:54:53;4.57;;;3.72;;
19032;SDS011;9649;51.042;13.804;2023-04-23T23:59:57;5.60;;;3.75;;
